Time;durP1;ratioP1;P1;durP2;ratioP2;P2;SDS_P1;SDS_P2;PMS_P1;PMS_P2;Temp;Humidity;BMP_temperature;BMP_pressure;BME280_temperature;BME280_humidity;BME280_pressure;Samples;Min_cycle;Max_cycle;Signal;HPM_P1;HPM_P2
2021/12/11 00:00:24;;;;;;;152.07;41.37;;;;;;;;;;5050737;23;20274;-78
2021/12/11 00:02:59;;;;;;;142.37;41.53;;;;;;;;;;5029059;23;20208;-80
2021/12/11 00:05:26;;;;;;;142.77;42.37;;;;;;;;;;5052310;23;20203;-79
2021/12/11 00:07:53;;;;;;;170.63;45.13;;;;;;;;;;5055864;23;20440;-82
2021/12/11 00:10:25;;;;;;;154.37;43.40;;;;;;;;;;5049339;23;23467;-81
2021/12/11 00:12:54;;;;;;;168.20;46.03;;;;;;;;;;5058209;23;20201;-80
2021/12/11 00:15:22;;;;;;;177.27;49.20;;;;;;;;;;5037809;23;20243;-80
2021/12/11 00:17:55;;;;;;;166.63;47.53;;;;;;;;;;5066241;23;20206;-80
2021/12/11 00:20:24;;;;;;;155.67;46.43;;;;;;;;;;5004680;23;20211;-78
2021/12/11 00:22:51;;;;;;;174.43;47.57;;;;;;;;;;5014203;23;20210;-80
2021/12/11 00:25:18;;;;;;;171.97;47.67;;;;;;;;;;5017163;23;20211;-78
2021/12/11 00:27:48;;;;;;;148.83;44.93;;;;;;;;;;5033136;23;20204;-81
2021/12/11 00:30:41;;;;;;;155.23;47.47;;;;;;;;;;4987366;23;21113;-82
2021/12/11 00:33:13;;;;;;;178.33;46.27;;;;;;;;;;5039662;23;21182;-80
2021/12/11 00:35:39;;;;;;;171.60;46.30;;;;;;;;;;5049687;23;20247;-79
2021/12/11 00:38:17;;;;;;;162.27;45.83;;;;;;;;;;5051508;23;20209;-80
2021/12/11 00:40:45;;;;;;;167.87;46.63;;;;;;;;;;5029437;23;20209;-80
2021/12/11 00:43:17;;;;;;;147.20;44.40;;;;;;;;;;5000053;23;20755;-80
2021/12/11 00:45:45;;;;;;;155.67;43.90;;;;;;;;;;5009006;23;25459;-80
2021/12/11 00:48:13;;;;;;;146.87;44.10;;;;;;;;;;4996980;23;20256;-79
2021/12/11 00:50:39;;;;;;;147.00;43.47;;;;;;;;;;5007572;23;20205;-79
2021/12/11 00:53:08;;;;;;;158.07;45.50;;;;;;;;;;5011603;23;22621;-78
2021/12/11 00:55:58;;;;;;;170.70;47.60;;;;;;;;;;5002972;23;20205;-81
2021/12/11 00:58:29;;;;;;;144.47;45.07;;;;;;;;;;5025647;23;20204;-77
2021/12/11 01:01:00;;;;;;;150.27;46.23;;;;;;;;;;5038083;23;20208;-80
2021/12/11 01:03:32;;;;;;;152.50;45.00;;;;;;;;;;5020193;23;20439;-78
2021/12/11 01:05:59;;;;;;;159.83;47.40;;;;;;;;;;4992340;23;21329;-81
2021/12/11 01:08:32;;;;;;;159.60;50.67;;;;;;;;;;5008189;23;22675;-79
2021/12/11 01:11:03;;;;;;;154.57;49.07;;;;;;;;;;5018330;23;20309;-78
2021/12/11 01:13:33;;;;;;;174.53;49.50;;;;;;;;;;5010612;23;20205;-77
2021/12/11 01:16:05;;;;;;;173.67;47.93;;;;;;;;;;5010836;23;20206;-80
2021/12/11 01:18:37;;;;;;;174.57;48.87;;;;;;;;;;5022017;23;20693;-80
2021/12/11 01:21:25;;;;;;;172.87;47.53;;;;;;;;;;5006615;23;20652;-81
2021/12/11 01:24:08;;;;;;;158.40;45.83;;;;;;;;;;5013169;23;20253;-79
2021/12/11 01:26:37;;;;;;;155.73;45.87;;;;;;;;;;4986556;23;20370;-78
2021/12/11 01:29:05;;;;;;;160.90;46.13;;;;;;;;;;5014415;23;20205;-80
2021/12/11 01:31:32;;;;;;;164.37;49.73;;;;;;;;;;4998669;23;20925;-80
2021/12/11 01:33:58;;;;;;;152.20;44.63;;;;;;;;;;5024554;23;20313;-80
2021/12/11 01:36:25;;;;;;;159.40;46.80;;;;;;;;;;5052246;23;20218;-81
2021/12/11 01:38:55;;;;;;;169.67;46.63;;;;;;;;;;5017820;23;20218;-79
2021/12/11 01:41:22;;;;;;;146.73;44.53;;;;;;;;;;5018018;23;22817;-80
2021/12/11 01:43:50;;;;;;;150.23;42.50;;;;;;;;;;5040502;23;20211;-78
2021/12/11 01:46:19;;;;;;;172.80;44.13;;;;;;;;;;5012197;23;25823;-77
2021/12/11 01:48:48;;;;;;;145.10;41.43;;;;;;;;;;5005586;23;20283;-81
2021/12/11 01:51:22;;;;;;;168.53;45.30;;;;;;;;;;5018264;23;20206;-79
2021/12/11 01:53:55;;;;;;;154.00;43.63;;;;;;;;;;5005061;23;23035;-80
2021/12/11 01:56:24;;;;;;;163.80;44.50;;;;;;;;;;5020897;23;21846;-79
2021/12/11 01:58:57;;;;;;;209.57;42.97;;;;;;;;;;5012410;23;21668;-79
2021/12/11 02:01:26;;;;;;;195.50;42.03;;;;;;;;;;5032364;23;20212;-80
2021/12/11 02:03:54;;;;;;;145.37;40.73;;;;;;;;;;5034189;23;20217;-79
2021/12/11 02:06:20;;;;;;;187.13;41.40;;;;;;;;;;5030829;23;20310;-81
2021/12/11 02:08:47;;;;;;;149.83;40.27;;;;;;;;;;5011057;23;20717;-80
2021/12/11 02:11:17;;;;;;;169.27;39.90;;;;;;;;;;5014387;23;20284;-79
2021/12/11 02:13:52;;;;;;;124.63;36.93;;;;;;;;;;5044812;23;21221;-80
2021/12/11 02:16:21;;;;;;;168.70;38.50;;;;;;;;;;4991337;23;20626;-78
2021/12/11 02:18:49;;;;;;;407.80;43.67;;;;;;;;;;5037864;23;21186;-80
2021/12/11 02:21:19;;;;;;;337.97;42.17;;;;;;;;;;5013175;23;20273;-77
2021/12/11 02:23:51;;;;;;;136.67;36.50;;;;;;;;;;5013505;23;20368;-80
2021/12/11 02:26:17;;;;;;;138.13;36.17;;;;;;;;;;5031201;23;20209;-81
2021/12/11 02:28:56;;;;;;;139.80;37.33;;;;;;;;;;5010016;23;22494;-79
2021/12/11 02:31:32;;;;;;;167.40;39.60;;;;;;;;;;4974898;23;22251;-79
2021/12/11 02:34:07;;;;;;;192.57;39.93;;;;;;;;;;5022914;23;21478;-79
2021/12/11 02:36:46;;;;;;;269.83;40.03;;;;;;;;;;5041154;23;20408;-78
2021/12/11 02:39:13;;;;;;;140.43;38.47;;;;;;;;;;5011575;23;20272;-80
2021/12/11 02:41:49;;;;;;;159.93;38.37;;;;;;;;;;5010624;23;20209;-79
2021/12/11 02:44:21;;;;;;;139.00;36.30;;;;;;;;;;5054594;23;21675;-81
2021/12/11 02:46:48;;;;;;;180.37;37.13;;;;;;;;;;5045737;23;20214;-82
2021/12/11 02:49:21;;;;;;;142.63;35.63;;;;;;;;;;5042732;23;20379;-78
2021/12/11 02:51:54;;;;;;;166.20;35.07;;;;;;;;;;5008370;23;21474;-77
2021/12/11 02:54:31;;;;;;;205.60;38.30;;;;;;;;;;5012779;23;20673;-77
2021/12/11 02:57:01;;;;;;;253.43;39.63;;;;;;;;;;5008804;23;22715;-79
2021/12/11 02:59:30;;;;;;;128.97;35.97;;;;;;;;;;4994859;23;20207;-78
2021/12/11 03:02:04;;;;;;;144.27;36.87;;;;;;;;;;5053382;23;20221;-79
2021/12/11 03:04:36;;;;;;;126.33;36.63;;;;;;;;;;5012866;23;20250;-79
2021/12/11 03:07:06;;;;;;;280.93;43.37;;;;;;;;;;5021067;23;26229;-80
2021/12/11 03:09:35;;;;;;;228.67;40.80;;;;;;;;;;5003041;23;20220;-78
2021/12/11 03:12:03;;;;;;;208.40;38.83;;;;;;;;;;5036791;23;20205;-78
2021/12/11 03:14:30;;;;;;;137.90;36.87;;;;;;;;;;5033692;23;21753;-77
2021/12/11 03:16:57;;;;;;;237.80;42.77;;;;;;;;;;5023440;23;21681;-77
2021/12/11 03:19:25;;;;;;;159.77;35.17;;;;;;;;;;4994473;23;20796;-78
2021/12/11 03:21:53;;;;;;;337.23;43.63;;;;;;;;;;5015667;23;21576;-78
2021/12/11 03:24:21;;;;;;;173.13;36.83;;;;;;;;;;4999563;23;20212;-78
2021/12/11 03:26:49;;;;;;;269.77;39.17;;;;;;;;;;5019112;23;20415;-77
2021/12/11 03:29:16;;;;;;;480.90;45.83;;;;;;;;;;4999861;23;20209;-78
2021/12/11 03:31:42;;;;;;;230.13;36.90;;;;;;;;;;5009599;23;20207;-79
2021/12/11 03:34:10;;;;;;;230.83;37.40;;;;;;;;;;5013671;23;20213;-76
2021/12/11 03:36:37;;;;;;;282.67;36.10;;;;;;;;;;5005445;23;20344;-77
2021/12/11 03:39:13;;;;;;;254.23;36.73;;;;;;;;;;5037854;23;20217;-77
2021/12/11 03:41:40;;;;;;;170.17;34.20;;;;;;;;;;5015488;23;21062;-78
2021/12/11 03:44:08;;;;;;;180.43;34.53;;;;;;;;;;5030244;23;21210;-78
2021/12/11 03:46:34;;;;;;;180.37;35.13;;;;;;;;;;5023655;23;21633;-76
2021/12/11 03:49:03;;;;;;;138.77;34.03;;;;;;;;;;5043279;23;20214;-78
2021/12/11 03:51:31;;;;;;;144.30;36.23;;;;;;;;;;5020543;23;20209;-80
2021/12/11 03:53:59;;;;;;;216.77;36.80;;;;;;;;;;5006770;23;20300;-78
2021/12/11 03:56:26;;;;;;;151.63;34.37;;;;;;;;;;5008473;23;20275;-77
2021/12/11 03:58:52;;;;;;;214.87;37.50;;;;;;;;;;4992956;23;20667;-78
2021/12/11 04:01:25;;;;;;;139.40;34.63;;;;;;;;;;5019087;23;20295;-78
2021/12/11 04:03:54;;;;;;;401.23;43.13;;;;;;;;;;4997177;23;20280;-80
2021/12/11 04:06:21;;;;;;;315.27;39.67;;;;;;;;;;5053444;23;21770;-82
2021/12/11 04:08:48;;;;;;;184.87;37.13;;;;;;;;;;5016177;23;20432;-77
2021/12/11 04:11:17;;;;;;;119.57;30.67;;;;;;;;;;5001961;23;20209;-77
2021/12/11 04:13:44;;;;;;;122.93;33.70;;;;;;;;;;5003753;23;20237;-77
2021/12/11 04:16:11;;;;;;;175.47;36.97;;;;;;;;;;5013372;23;20207;-79
2021/12/11 04:18:37;;;;;;;130.73;35.07;;;;;;;;;;5017730;23;20264;-77
2021/12/11 04:21:05;;;;;;;128.07;33.30;;;;;;;;;;5035073;23;20233;-79
2021/12/11 04:23:32;;;;;;;111.10;31.43;;;;;;;;;;5036176;23;21133;-78
2021/12/11 04:25:58;;;;;;;121.57;33.23;;;;;;;;;;5027197;23;21332;-78
2021/12/11 04:28:26;;;;;;;105.90;30.60;;;;;;;;;;5013833;23;21151;-78
2021/12/11 04:30:54;;;;;;;135.67;32.53;;;;;;;;;;5017948;23;20276;-80
2021/12/11 04:33:20;;;;;;;133.83;32.57;;;;;;;;;;5015229;23;20206;-79
2021/12/11 04:35:47;;;;;;;110.53;30.10;;;;;;;;;;5017001;23;21395;-79
2021/12/11 04:38:14;;;;;;;131.23;32.20;;;;;;;;;;5016121;23;21326;-79
2021/12/11 04:40:43;;;;;;;162.90;32.77;;;;;;;;;;5013517;23;20276;-78
2021/12/11 04:43:16;;;;;;;117.20;31.73;;;;;;;;;;5014240;23;20217;-79
2021/12/11 04:45:52;;;;;;;210.60;34.07;;;;;;;;;;4995749;23;21081;-78
2021/12/11 04:48:29;;;;;;;214.70;33.30;;;;;;;;;;5009234;23;20968;-78
2021/12/11 04:51:02;;;;;;;113.30;30.90;;;;;;;;;;5026579;23;20380;-77
2021/12/11 04:53:52;;;;;;;142.00;31.30;;;;;;;;;;5008693;23;21124;-77
2021/12/11 04:56:47;;;;;;;105.90;29.23;;;;;;;;;;5055689;23;20335;-79
2021/12/11 05:02:15;;;;;;;121.23;31.10;;;;;;;;;;5031432;23;21730;-79
2021/12/11 05:10:22;;;;;;;108.43;30.30;;;;;;;;;;4982845;23;20202;-79
2021/12/11 05:12:50;;;;;;;139.43;32.60;;;;;;;;;;5011374;23;20204;-79
2021/12/11 05:15:18;;;;;;;109.70;30.77;;;;;;;;;;5011933;23;20209;-77
2021/12/11 05:17:45;;;;;;;110.33;29.13;;;;;;;;;;5011361;23;20206;-77
2021/12/11 05:20:14;;;;;;;117.87;30.83;;;;;;;;;;5009972;23;23155;-77
2021/12/11 05:22:41;;;;;;;98.60;28.53;;;;;;;;;;5024870;23;21687;-79
2021/12/11 05:25:09;;;;;;;113.83;31.17;;;;;;;;;;5012505;23;23701;-80
2021/12/11 05:27:36;;;;;;;110.70;30.83;;;;;;;;;;5011169;23;20482;-80
2021/12/11 05:30:05;;;;;;;114.70;30.10;;;;;;;;;;5010339;23;20257;-78
2021/12/11 05:32:32;;;;;;;117.53;30.97;;;;;;;;;;5008359;23;20288;-78
2021/12/11 05:34:58;;;;;;;110.40;29.70;;;;;;;;;;5029698;23;20949;-80
2021/12/11 05:37:25;;;;;;;113.83;30.90;;;;;;;;;;5018887;23;20217;-78
2021/12/11 05:39:51;;;;;;;124.90;31.83;;;;;;;;;;5010848;23;22711;-77
2021/12/11 05:42:18;;;;;;;108.20;29.03;;;;;;;;;;5016727;23;20209;-78
2021/12/11 05:44:45;;;;;;;102.27;28.27;;;;;;;;;;5007242;23;20281;-81
2021/12/11 05:47:11;;;;;;;104.70;29.00;;;;;;;;;;5014638;23;21568;-80
2021/12/11 05:49:39;;;;;;;100.93;28.23;;;;;;;;;;5015818;23;20205;-80
2021/12/11 05:52:06;;;;;;;97.57;27.93;;;;;;;;;;5019179;23;20206;-79
2021/12/11 05:54:34;;;;;;;99.37;28.47;;;;;;;;;;5016213;23;20202;-79
2021/12/11 05:57:03;;;;;;;110.97;29.67;;;;;;;;;;5019703;23;20202;-80
2021/12/11 05:59:29;;;;;;;108.93;29.77;;;;;;;;;;5012071;23;20205;-77
2021/12/11 06:02:10;;;;;;;110.37;30.27;;;;;;;;;;5014108;23;21451;-78
2021/12/11 06:04:38;;;;;;;122.87;30.43;;;;;;;;;;5031420;23;21515;-78
2021/12/11 06:07:07;;;;;;;119.90;31.47;;;;;;;;;;5016507;23;21023;-78
2021/12/11 06:09:35;;;;;;;123.40;32.17;;;;;;;;;;5006067;23;20573;-80
2021/12/11 06:12:05;;;;;;;119.23;31.63;;;;;;;;;;5023510;23;22485;-78
2021/12/11 06:14:31;;;;;;;138.00;35.07;;;;;;;;;;5010774;23;20225;-79
2021/12/11 06:16:59;;;;;;;141.87;34.97;;;;;;;;;;4998981;23;20217;-77
2021/12/11 06:19:27;;;;;;;135.30;33.10;;;;;;;;;;5032725;23;22184;-78
2021/12/11 06:21:55;;;;;;;150.07;35.73;;;;;;;;;;5028519;23;20216;-77
2021/12/11 06:24:22;;;;;;;139.37;35.73;;;;;;;;;;4996760;23;20444;-80
2021/12/11 06:26:49;;;;;;;205.53;37.73;;;;;;;;;;5019571;23;20265;-79
2021/12/11 06:29:16;;;;;;;142.70;34.87;;;;;;;;;;5048921;23;20901;-79
2021/12/11 06:31:44;;;;;;;210.37;38.83;;;;;;;;;;5014174;23;20203;-77
2021/12/11 06:34:12;;;;;;;178.17;36.40;;;;;;;;;;4991580;23;20201;-81
2021/12/11 06:36:39;;;;;;;164.00;37.37;;;;;;;;;;5009541;23;20213;-78
2021/12/11 06:39:07;;;;;;;165.73;37.03;;;;;;;;;;5018980;23;20205;-78
2021/12/11 06:41:35;;;;;;;145.47;36.67;;;;;;;;;;4997892;23;20207;-79
2021/12/11 06:44:02;;;;;;;172.07;38.37;;;;;;;;;;5018777;23;24178;-80
2021/12/11 06:46:30;;;;;;;145.07;36.80;;;;;;;;;;5033582;23;20205;-77
2021/12/11 06:48:58;;;;;;;135.87;35.43;;;;;;;;;;5032561;23;20207;-79
2021/12/11 06:51:24;;;;;;;144.93;36.50;;;;;;;;;;5014740;23;20207;-79
2021/12/11 06:53:53;;;;;;;177.10;38.30;;;;;;;;;;5038234;23;20215;-78
2021/12/11 06:56:20;;;;;;;144.43;38.73;;;;;;;;;;5005241;23;20256;-77
2021/12/11 06:58:47;;;;;;;164.10;45.23;;;;;;;;;;5005466;23;20219;-79
2021/12/11 07:01:14;;;;;;;139.30;37.30;;;;;;;;;;5019663;23;23259;-81
2021/12/11 07:03:41;;;;;;;144.53;35.37;;;;;;;;;;5019307;23;20216;-78
2021/12/11 07:06:08;;;;;;;136.93;34.97;;;;;;;;;;5031306;23;21248;-77
2021/12/11 07:08:36;;;;;;;137.50;35.30;;;;;;;;;;5045395;23;20214;-78
2021/12/11 07:11:03;;;;;;;141.77;35.77;;;;;;;;;;5040783;23;20212;-80
2021/12/11 07:13:29;;;;;;;137.93;34.47;;;;;;;;;;5066694;23;20268;-79
2021/12/11 07:15:56;;;;;;;133.03;33.53;;;;;;;;;;5042156;23;20212;-79
2021/12/11 07:18:24;;;;;;;149.07;35.43;;;;;;;;;;5058208;23;22888;-78
2021/12/11 07:20:51;;;;;;;124.47;33.40;;;;;;;;;;5039222;23;20684;-80
2021/12/11 07:23:17;;;;;;;131.37;35.20;;;;;;;;;;5046595;23;21136;-80
2021/12/11 07:25:48;;;;;;;132.63;36.57;;;;;;;;;;5023103;23;20481;-78
2021/12/11 07:28:15;;;;;;;133.10;35.03;;;;;;;;;;5059695;23;20251;-82
2021/12/11 07:30:43;;;;;;;117.23;33.13;;;;;;;;;;5005408;23;22194;-82
2021/12/11 07:33:10;;;;;;;106.27;32.17;;;;;;;;;;5006437;23;20746;-82
2021/12/11 07:35:39;;;;;;;98.27;32.37;;;;;;;;;;5048556;23;20283;-82
2021/12/11 07:38:06;;;;;;;110.60;32.57;;;;;;;;;;5067061;23;20206;-82
2021/12/11 07:40:43;;;;;;;105.77;30.73;;;;;;;;;;5036280;23;20245;-81
2021/12/11 07:43:12;;;;;;;100.83;30.30;;;;;;;;;;5007057;23;23180;-82
2021/12/11 07:45:39;;;;;;;103.53;31.43;;;;;;;;;;5024964;23;20260;-81
2021/12/11 07:48:06;;;;;;;95.07;30.03;;;;;;;;;;5040815;23;21081;-81
2021/12/11 07:50:32;;;;;;;94.20;30.03;;;;;;;;;;5040449;23;20236;-83
2021/12/11 07:52:59;;;;;;;89.17;28.50;;;;;;;;;;5015720;23;20350;-78
2021/12/11 07:55:26;;;;;;;96.63;28.43;;;;;;;;;;5034057;23;20282;-81
2021/12/11 07:57:53;;;;;;;90.90;28.50;;;;;;;;;;5051339;23;20317;-81
2021/12/11 08:00:21;;;;;;;88.90;28.97;;;;;;;;;;5023304;23;20212;-79
2021/12/11 08:02:47;;;;;;;96.50;29.40;;;;;;;;;;5040522;23;20944;-83
2021/12/11 08:05:14;;;;;;;106.90;32.30;;;;;;;;;;5014142;23;21211;-83
2021/12/11 08:07:41;;;;;;;108.87;32.73;;;;;;;;;;5030685;23;21917;-83
2021/12/11 08:10:11;;;;;;;109.77;33.40;;;;;;;;;;5069850;23;20260;-79
2021/12/11 08:12:38;;;;;;;108.43;31.63;;;;;;;;;;5066417;23;20243;-82
2021/12/11 08:15:05;;;;;;;99.67;31.93;;;;;;;;;;5044960;23;20581;-80
2021/12/11 08:17:31;;;;;;;99.77;32.17;;;;;;;;;;5059275;23;20216;-77
2021/12/11 08:19:58;;;;;;;100.87;31.33;;;;;;;;;;5015064;23;20309;-82
2021/12/11 08:22:25;;;;;;;99.93;32.00;;;;;;;;;;5051253;23;20379;-77
2021/12/11 08:24:51;;;;;;;99.07;30.80;;;;;;;;;;5036032;23;26405;-84
2021/12/11 08:27:20;;;;;;;90.10;30.60;;;;;;;;;;5049760;23;21198;-82
2021/12/11 08:29:49;;;;;;;98.00;31.30;;;;;;;;;;5012434;23;20674;-83
2021/12/11 08:32:16;;;;;;;100.17;32.23;;;;;;;;;;5030596;23;21458;-81
2021/12/11 08:34:42;;;;;;;93.30;30.43;;;;;;;;;;5032828;23;21401;-81
2021/12/11 08:37:11;;;;;;;90.37;30.27;;;;;;;;;;5035458;23;20220;-81
2021/12/11 08:39:38;;;;;;;86.53;28.97;;;;;;;;;;5010617;23;20201;-79
2021/12/11 08:42:06;;;;;;;85.30;28.23;;;;;;;;;;5044381;23;20739;-82
2021/12/11 08:44:37;;;;;;;88.83;29.77;;;;;;;;;;5013501;23;20210;-84
2021/12/11 08:47:05;;;;;;;93.90;31.40;;;;;;;;;;5033242;23;20388;-82
2021/12/11 08:49:33;;;;;;;87.07;30.47;;;;;;;;;;5048433;23;20210;-81
2021/12/11 08:52:04;;;;;;;97.13;31.63;;;;;;;;;;5031587;23;20315;-84
2021/12/11 08:54:32;;;;;;;98.97;32.03;;;;;;;;;;5048030;23;20209;-85
2021/12/11 08:57:04;;;;;;;93.40;31.03;;;;;;;;;;5036373;23;20206;-83
2021/12/11 08:59:31;;;;;;;90.70;31.70;;;;;;;;;;5020931;23;20422;-82
2021/12/11 09:02:04;;;;;;;96.50;32.03;;;;;;;;;;5031485;23;20376;-80
2021/12/11 09:04:34;;;;;;;101.13;31.93;;;;;;;;;;5031573;23;20464;-79
2021/12/11 09:07:06;;;;;;;116.80;39.50;;;;;;;;;;5018719;23;25144;-78
2021/12/11 09:09:41;;;;;;;113.15;41.60;;;;;;;;;;5039953;23;23179;-79
2021/12/11 09:12:11;;;;;;;112.97;34.70;;;;;;;;;;5004745;23;25344;-78
2021/12/11 09:14:42;;;;;;;109.60;32.93;;;;;;;;;;5017985;23;20787;-75
2021/12/11 09:17:29;;;;;;;110.10;33.40;;;;;;;;;;5028283;23;20478;-79
2021/12/11 09:20:00;;;;;;;123.33;35.27;;;;;;;;;;5037493;23;20304;-81
2021/12/11 09:22:34;;;;;;;130.63;37.97;;;;;;;;;;5044867;23;20213;-82
2021/12/11 09:25:10;;;;;;;146.90;39.83;;;;;;;;;;5014218;23;20760;-82
2021/12/11 09:27:40;;;;;;;138.53;38.90;;;;;;;;;;5028184;23;20213;-82
2021/12/11 09:30:29;;;;;;;139.63;38.70;;;;;;;;;;5023717;23;20209;-79
2021/12/11 09:32:58;;;;;;;129.17;37.60;;;;;;;;;;5049820;23;20209;-80
2021/12/11 09:35:33;;;;;;;141.47;39.00;;;;;;;;;;5019035;23;20217;-79
2021/12/11 09:38:02;;;;;;;131.17;37.10;;;;;;;;;;5034400;23;20582;-79
2021/12/11 09:40:31;;;;;;;131.27;37.33;;;;;;;;;;5045730;23;20281;-80
2021/12/11 09:42:58;;;;;;;146.83;39.20;;;;;;;;;;5015194;23;21816;-80
2021/12/11 09:45:26;;;;;;;126.73;37.27;;;;;;;;;;5035403;23;20624;-81
2021/12/11 09:47:56;;;;;;;138.20;37.83;;;;;;;;;;5037093;23;20205;-79
2021/12/11 09:50:30;;;;;;;129.03;37.77;;;;;;;;;;5019686;23;20268;-79
2021/12/11 09:52:57;;;;;;;132.87;38.60;;;;;;;;;;5008174;23;20296;-80
2021/12/11 09:55:25;;;;;;;124.80;38.57;;;;;;;;;;5025772;23;21200;-78
2021/12/11 09:57:54;;;;;;;143.83;40.97;;;;;;;;;;5019958;23;20212;-80
2021/12/11 10:00:28;;;;;;;140.30;38.53;;;;;;;;;;5030393;23;21178;-83
2021/12/11 10:02:54;;;;;;;135.67;39.53;;;;;;;;;;5038534;23;21143;-82
2021/12/11 10:05:31;;;;;;;134.93;38.07;;;;;;;;;;5025418;23;20257;-82
2021/12/11 10:08:31;;;;;;;138.60;41.20;;;;;;;;;;5022388;23;22485;-85
2021/12/11 10:11:10;;;;;;;124.07;37.53;;;;;;;;;;5032976;23;20209;-79
2021/12/11 10:13:42;;;;;;;140.00;38.50;;;;;;;;;;5007090;23;20204;-81
2021/12/11 10:16:09;;;;;;;121.03;37.63;;;;;;;;;;5023477;23;20212;-79
2021/12/11 10:18:36;;;;;;;125.60;39.17;;;;;;;;;;5001937;23;20214;-78
2021/12/11 10:21:10;;;;;;;132.50;40.27;;;;;;;;;;5037614;23;20211;-81
2021/12/11 10:23:39;;;;;;;114.93;36.57;;;;;;;;;;5067022;23;20218;-71
2021/12/11 10:26:10;;;;;;;121.30;38.20;;;;;;;;;;5042570;23;20215;-79
2021/12/11 10:28:38;;;;;;;121.83;39.57;;;;;;;;;;5067180;23;22877;-84
2021/12/11 10:31:14;;;;;;;120.77;40.83;;;;;;;;;;5052632;23;20206;-83
2021/12/11 10:33:41;;;;;;;125.57;41.57;;;;;;;;;;5031745;23;20210;-81
2021/12/11 10:36:18;;;;;;;133.07;41.23;;;;;;;;;;5045710;23;20207;-71
2021/12/11 10:38:45;;;;;;;133.30;39.87;;;;;;;;;;5041189;23;20203;-77
2021/12/11 10:41:23;;;;;;;131.37;40.83;;;;;;;;;;5045147;23;20436;-78
2021/12/11 10:43:55;;;;;;;123.03;36.67;;;;;;;;;;5077343;23;20215;-80
2021/12/11 10:46:25;;;;;;;110.93;34.57;;;;;;;;;;5045791;23;20816;-78
2021/12/11 10:48:51;;;;;;;113.53;35.97;;;;;;;;;;5060222;23;20207;-75
2021/12/11 10:51:20;;;;;;;109.53;34.93;;;;;;;;;;5058475;23;20266;-78
2021/12/11 10:53:48;;;;;;;98.40;34.00;;;;;;;;;;5056392;23;20206;-77
2021/12/11 10:56:16;;;;;;;109.43;34.43;;;;;;;;;;5067393;23;25020;-77
2021/12/11 10:58:45;;;;;;;118.57;35.60;;;;;;;;;;5062615;23;23256;-78
2021/12/11 11:01:14;;;;;;;109.33;34.83;;;;;;;;;;5052061;23;22019;-76
2021/12/11 11:03:45;;;;;;;104.13;33.77;;;;;;;;;;5046862;23;22744;-78
2021/12/11 11:06:12;;;;;;;101.03;33.63;;;;;;;;;;5065832;23;20215;-78
2021/12/11 11:08:40;;;;;;;114.63;34.80;;;;;;;;;;5063676;23;20230;-78
2021/12/11 11:11:13;;;;;;;114.13;34.63;;;;;;;;;;5038073;23;20218;-75
2021/12/11 11:13:41;;;;;;;112.50;35.27;;;;;;;;;;5056040;23;20206;-77
2021/12/11 11:16:08;;;;;;;103.17;34.07;;;;;;;;;;5045809;23;21226;-79
2021/12/11 11:18:35;;;;;;;126.00;35.93;;;;;;;;;;5066196;23;20232;-76
2021/12/11 11:21:10;;;;;;;124.87;37.43;;;;;;;;;;5079191;23;23328;-74
2021/12/11 11:23:38;;;;;;;130.90;37.50;;;;;;;;;;5055731;23;20282;-78
2021/12/11 11:26:10;;;;;;;120.73;37.37;;;;;;;;;;5088596;23;20241;-78
2021/12/11 11:28:37;;;;;;;127.70;39.80;;;;;;;;;;5057492;23;20214;-76
2021/12/11 11:31:06;;;;;;;123.43;40.03;;;;;;;;;;5057798;23;22689;-77
2021/12/11 11:33:33;;;;;;;131.47;39.43;;;;;;;;;;5063953;23;22850;-79
2021/12/11 11:36:00;;;;;;;133.47;40.30;;;;;;;;;;5079653;23;21887;-78
2021/12/11 11:38:34;;;;;;;140.77;41.43;;;;;;;;;;5045574;23;20210;-70
2021/12/11 11:41:03;;;;;;;127.30;38.77;;;;;;;;;;5066347;23;24956;-81
2021/12/11 11:43:29;;;;;;;126.47;39.10;;;;;;;;;;5051698;23;20210;-78
2021/12/11 11:45:56;;;;;;;122.43;38.63;;;;;;;;;;5055776;23;21462;-76
2021/12/11 11:48:23;;;;;;;123.53;37.43;;;;;;;;;;5063446;23;20204;-77
2021/12/11 11:51:08;;;;;;;122.47;37.17;;;;;;;;;;5047787;23;20210;-76
2021/12/11 11:53:34;;;;;;;122.83;36.27;;;;;;;;;;5013498;23;20275;-79
2021/12/11 11:56:06;;;;;;;121.57;36.83;;;;;;;;;;5074882;23;20204;-75
2021/12/11 11:58:32;;;;;;;136.13;37.17;;;;;;;;;;5051009;23;20208;-76
2021/12/11 12:01:11;;;;;;;125.97;36.03;;;;;;;;;;5052580;23;20204;-76
2021/12/11 12:03:38;;;;;;;116.67;35.63;;;;;;;;;;5035123;23;20208;-74
2021/12/11 12:06:10;;;;;;;132.67;37.97;;;;;;;;;;5042420;23;20210;-74
2021/12/11 12:08:38;;;;;;;136.57;37.43;;;;;;;;;;5052447;23;21646;-75
2021/12/11 12:11:05;;;;;;;121.33;37.23;;;;;;;;;;5040620;23;20883;-77
2021/12/11 12:13:32;;;;;;;123.70;36.97;;;;;;;;;;5065202;23;20219;-77
2021/12/11 12:16:18;;;;;;;136.80;37.80;;;;;;;;;;5061727;23;25058;-78
2021/12/11 12:18:45;;;;;;;130.67;40.50;;;;;;;;;;5039479;23;20587;-82
2021/12/11 12:21:17;;;;;;;130.00;36.87;;;;;;;;;;5043473;23;22801;-74
2021/12/11 12:23:45;;;;;;;125.77;37.47;;;;;;;;;;5071678;23;20222;-77
2021/12/11 12:26:17;;;;;;;145.80;40.57;;;;;;;;;;5039136;23;20314;-76
2021/12/11 12:28:43;;;;;;;130.07;36.67;;;;;;;;;;5060130;23;20319;-76
2021/12/11 12:31:14;;;;;;;122.60;37.10;;;;;;;;;;5057935;23;20208;-76
2021/12/11 12:33:42;;;;;;;128.70;37.50;;;;;;;;;;5064255;23;20591;-79
2021/12/11 12:36:10;;;;;;;125.07;36.73;;;;;;;;;;5075940;23;20344;-78
2021/12/11 12:38:37;;;;;;;140.10;41.13;;;;;;;;;;5065853;23;20502;-77
2021/12/11 12:41:11;;;;;;;144.17;38.63;;;;;;;;;;5065051;23;20210;-76
2021/12/11 12:46:23;;;;;;;153.40;40.27;;;;;;;;;;5048221;23;21182;-75
2021/12/11 12:48:50;;;;;;;138.47;38.90;;;;;;;;;;5061615;23;20941;-76
2021/12/11 12:51:17;;;;;;;137.80;39.77;;;;;;;;;;5068331;23;20297;-75
2021/12/11 12:53:44;;;;;;;142.00;40.50;;;;;;;;;;5063426;23;20212;-75
2021/12/11 12:56:13;;;;;;;128.57;39.23;;;;;;;;;;5073519;23;20618;-76
2021/12/11 12:59:01;;;;;;;131.07;38.43;;;;;;;;;;5070620;23;20595;-79
2021/12/11 13:01:31;;;;;;;152.13;43.63;;;;;;;;;;5063661;23;21745;-76
2021/12/11 13:04:03;;;;;;;133.40;40.63;;;;;;;;;;5039177;23;22365;-76
2021/12/11 13:06:31;;;;;;;134.10;41.33;;;;;;;;;;5071241;23;20358;-75
2021/12/11 13:09:01;;;;;;;143.40;42.50;;;;;;;;;;5027814;23;20262;-76
2021/12/11 13:11:31;;;;;;;150.83;45.93;;;;;;;;;;5063644;23;20248;-80
2021/12/11 13:13:58;;;;;;;153.67;41.93;;;;;;;;;;5071515;23;20247;-73
2021/12/11 13:16:27;;;;;;;137.13;41.83;;;;;;;;;;5047693;23;20208;-76
2021/12/11 13:18:56;;;;;;;136.40;44.93;;;;;;;;;;5055147;23;20260;-74
2021/12/11 13:21:26;;;;;;;162.03;47.87;;;;;;;;;;5059012;23;20880;-74
2021/12/11 13:23:54;;;;;;;157.40;47.60;;;;;;;;;;5069573;23;21622;-77
2021/12/11 13:26:22;;;;;;;145.67;44.57;;;;;;;;;;5050683;23;21504;-75
2021/12/11 13:28:50;;;;;;;149.77;45.73;;;;;;;;;;5043490;23;20208;-74
2021/12/11 13:31:19;;;;;;;158.00;46.67;;;;;;;;;;5057198;23;20621;-75
2021/12/11 13:33:46;;;;;;;149.13;45.00;;;;;;;;;;5064601;23;25114;-81
2021/12/11 13:36:13;;;;;;;149.60;45.90;;;;;;;;;;5078808;23;20211;-78
2021/12/11 13:38:41;;;;;;;152.13;48.50;;;;;;;;;;5071032;23;20200;-80
2021/12/11 13:41:10;;;;;;;158.90;49.47;;;;;;;;;;5028222;23;20410;-74
2021/12/11 13:43:37;;;;;;;170.63;49.53;;;;;;;;;;5057460;23;20208;-80
2021/12/11 13:46:05;;;;;;;163.90;48.90;;;;;;;;;;5022193;23;20976;-75
2021/12/11 13:48:32;;;;;;;170.70;50.43;;;;;;;;;;5058624;23;25841;-76
2021/12/11 13:51:07;;;;;;;164.27;48.73;;;;;;;;;;5059754;23;20217;-76
2021/12/11 13:53:36;;;;;;;159.80;49.27;;;;;;;;;;5052582;23;21179;-78
2021/12/11 13:56:04;;;;;;;170.93;49.37;;;;;;;;;;5054845;23;20486;-76
2021/12/11 13:58:30;;;;;;;163.60;51.13;;;;;;;;;;5023793;23;20211;-76
2021/12/11 14:00:59;;;;;;;173.93;52.17;;;;;;;;;;5061810;23;20866;-76
2021/12/11 14:03:28;;;;;;;173.27;51.60;;;;;;;;;;5077566;23;22101;-77
2021/12/11 14:05:58;;;;;;;161.87;49.87;;;;;;;;;;5058585;23;20208;-74
2021/12/11 14:08:25;;;;;;;148.33;49.67;;;;;;;;;;5063484;23;25253;-75
2021/12/11 14:10:52;;;;;;;166.20;49.93;;;;;;;;;;5073800;23;20271;-80
2021/12/11 14:13:19;;;;;;;167.13;51.33;;;;;;;;;;5057546;23;20302;-77
2021/12/11 14:15:47;;;;;;;161.97;50.37;;;;;;;;;;5071355;23;20986;-77
2021/12/11 14:18:14;;;;;;;151.40;45.73;;;;;;;;;;5078046;23;20213;-78
2021/12/11 14:20:41;;;;;;;153.53;44.50;;;;;;;;;;5054169;23;21077;-77
2021/12/11 14:23:12;;;;;;;157.77;44.03;;;;;;;;;;5078595;23;20337;-77
2021/12/11 14:25:39;;;;;;;149.47;43.83;;;;;;;;;;5069358;23;21711;-80
2021/12/11 14:28:08;;;;;;;149.17;45.63;;;;;;;;;;5062021;23;20204;-78
2021/12/11 14:30:36;;;;;;;134.87;41.83;;;;;;;;;;5076401;23;20259;-77